sensor_id;sensor_type;location;lat;lon;timestamp;P1;durP1;ratioP1;P2;durP2;ratioP2
37805;SDS011;25082;50.870;0.022;2023-12-04T00:01:18;5.88;;;2.30;;
37805;SDS011;25082;50.870;0.022;2023-12-04T00:03:44;6.03;;;2.65;;
37805;SDS011;25082;50.870;0.022;2023-12-04T00:06:10;3.92;;;2.15;;
37805;SDS011;25082;50.870;0.022;2023-12-04T00:08:36;3.13;;;2.17;;
37805;SDS011;25082;50.870;0.022;2023-12-04T00:11:05;4.18;;;2.30;;
37805;SDS011;25082;50.870;0.022;2023-12-04T00:13:31;4.13;;;2.35;;
37805;SDS011;25082;50.870;0.022;2023-12-04T00:15:57;4.60;;;2.67;;
37805;SDS011;25082;50.870;0.022;2023-12-04T00:18:23;5.78;;;2.53;;
37805;SDS011;25082;50.870;0.022;2023-12-04T00:20:49;5.88;;;2.92;;
37805;SDS011;25082;50.870;0.022;2023-12-04T00:23:14;3.53;;;2.13;;
37805;SDS011;25082;50.870;0.022;2023-12-04T00:25:40;5.05;;;2.17;;
37805;SDS011;25082;50.870;0.022;2023-12-04T00:28:06;4.25;;;2.30;;
37805;SDS011;25082;50.870;0.022;2023-12-04T00:30:32;4.05;;;2.35;;
37805;SDS011;25082;50.870;0.022;2023-12-04T00:32:58;4.38;;;2.20;;
37805;SDS011;25082;50.870;0.022;2023-12-04T00:35:23;2.75;;;2.10;;
37805;SDS011;25082;50.870;0.022;2023-12-04T00:37:49;6.97;;;2.38;;
37805;SDS011;25082;50.870;0.022;2023-12-04T00:40:15;3.42;;;1.98;;
37805;SDS011;25082;50.870;0.022;2023-12-04T00:42:41;6.03;;;2.65;;
37805;SDS011;25082;50.870;0.022;2023-12-04T00:45:06;5.15;;;2.45;;
37805;SDS011;25082;50.870;0.022;2023-12-04T00:47:33;3.03;;;1.83;;
37805;SDS011;25082;50.870;0.022;2023-12-04T00:49:58;4.15;;;2.05;;
37805;SDS011;25082;50.870;0.022;2023-12-04T00:52:24;3.55;;;2.03;;
37805;SDS011;25082;50.870;0.022;2023-12-04T00:54:50;4.93;;;1.63;;
37805;SDS011;25082;50.870;0.022;2023-12-04T00:57:16;4.18;;;2.13;;
37805;SDS011;25082;50.870;0.022;2023-12-04T00:59:42;4.82;;;1.88;;
37805;SDS011;25082;50.870;0.022;2023-12-04T01:02:07;3.90;;;2.35;;
37805;SDS011;25082;50.870;0.022;2023-12-04T01:04:33;7.10;;;2.00;;
37805;SDS011;25082;50.870;0.022;2023-12-04T01:06:59;4.00;;;2.05;;
37805;SDS011;25082;50.870;0.022;2023-12-04T01:09:25;4.30;;;2.20;;
37805;SDS011;25082;50.870;0.022;2023-12-04T01:11:52;3.72;;;1.98;;
37805;SDS011;25082;50.870;0.022;2023-12-04T01:14:20;4.82;;;2.00;;
37805;SDS011;25082;50.870;0.022;2023-12-04T01:16:46;4.15;;;2.20;;
37805;SDS011;25082;50.870;0.022;2023-12-04T01:19:12;4.82;;;1.98;;
37805;SDS011;25082;50.870;0.022;2023-12-04T01:21:39;6.88;;;2.22;;
37805;SDS011;25082;50.870;0.022;2023-12-04T01:24:05;5.45;;;2.47;;
37805;SDS011;25082;50.870;0.022;2023-12-04T01:26:31;6.30;;;1.90;;
37805;SDS011;25082;50.870;0.022;2023-12-04T01:28:57;7.43;;;2.58;;
37805;SDS011;25082;50.870;0.022;2023-12-04T01:31:23;6.22;;;2.10;;
37805;SDS011;25082;50.870;0.022;2023-12-04T01:33:52;6.78;;;2.58;;
37805;SDS011;25082;50.870;0.022;2023-12-04T01:36:17;3.90;;;1.98;;
37805;SDS011;25082;50.870;0.022;2023-12-04T01:38:43;5.32;;;1.80;;
37805;SDS011;25082;50.870;0.022;2023-12-04T01:41:09;5.97;;;2.30;;
37805;SDS011;25082;50.870;0.022;2023-12-04T01:43:35;4.38;;;1.85;;
37805;SDS011;25082;50.870;0.022;2023-12-04T01:46:00;4.63;;;1.90;;
37805;SDS011;25082;50.870;0.022;2023-12-04T01:48:27;3.42;;;1.98;;
37805;SDS011;25082;50.870;0.022;2023-12-04T01:50:54;4.50;;;2.13;;
37805;SDS011;25082;50.870;0.022;2023-12-04T01:53:23;4.03;;;2.08;;
37805;SDS011;25082;50.870;0.022;2023-12-04T01:55:49;5.03;;;1.80;;
37805;SDS011;25082;50.870;0.022;2023-12-04T01:58:15;3.85;;;1.73;;
37805;SDS011;25082;50.870;0.022;2023-12-04T02:00:42;4.57;;;1.85;;
37805;SDS011;25082;50.870;0.022;2023-12-04T02:03:07;6.10;;;2.00;;
37805;SDS011;25082;50.870;0.022;2023-12-04T02:05:35;6.55;;;2.05;;
37805;SDS011;25082;50.870;0.022;2023-12-04T02:08:01;3.50;;;1.80;;
37805;SDS011;25082;50.870;0.022;2023-12-04T02:10:28;5.28;;;1.70;;
37805;SDS011;25082;50.870;0.022;2023-12-04T02:12:54;4.03;;;1.73;;
37805;SDS011;25082;50.870;0.022;2023-12-04T02:15:20;5.63;;;1.75;;
37805;SDS011;25082;50.870;0.022;2023-12-04T02:17:46;5.10;;;1.88;;
37805;SDS011;25082;50.870;0.022;2023-12-04T02:20:13;5.05;;;1.75;;
37805;SDS011;25082;50.870;0.022;2023-12-04T02:22:39;7.57;;;2.45;;
37805;SDS011;25082;50.870;0.022;2023-12-04T02:25:06;4.78;;;1.80;;
37805;SDS011;25082;50.870;0.022;2023-12-04T02:27:44;2.92;;;1.35;;
37805;SDS011;25082;50.870;0.022;2023-12-04T02:30:15;2.78;;;1.40;;
37805;SDS011;25082;50.870;0.022;2023-12-04T02:32:45;4.63;;;1.70;;
37805;SDS011;25082;50.870;0.022;2023-12-04T02:35:12;5.75;;;1.70;;
37805;SDS011;25082;50.870;0.022;2023-12-04T02:37:40;8.25;;;2.30;;
37805;SDS011;25082;50.870;0.022;2023-12-04T02:40:07;5.88;;;1.88;;
37805;SDS011;25082;50.870;0.022;2023-12-04T02:42:33;4.32;;;1.67;;
37805;SDS011;25082;50.870;0.022;2023-12-04T02:44:59;6.20;;;2.00;;
37805;SDS011;25082;50.870;0.022;2023-12-04T02:47:25;5.60;;;1.88;;
37805;SDS011;25082;50.870;0.022;2023-12-04T02:49:50;3.88;;;1.50;;
37805;SDS011;25082;50.870;0.022;2023-12-04T02:52:16;3.95;;;1.65;;
37805;SDS011;25082;50.870;0.022;2023-12-04T02:54:42;4.75;;;1.80;;
37805;SDS011;25082;50.870;0.022;2023-12-04T02:57:08;3.08;;;1.65;;
37805;SDS011;25082;50.870;0.022;2023-12-04T02:59:33;4.93;;;1.80;;
37805;SDS011;25082;50.870;0.022;2023-12-04T03:01:59;7.50;;;1.90;;
37805;SDS011;25082;50.870;0.022;2023-12-04T03:04:26;8.48;;;2.83;;
37805;SDS011;25082;50.870;0.022;2023-12-04T03:06:54;3.88;;;1.45;;
37805;SDS011;25082;50.870;0.022;2023-12-04T03:09:20;3.35;;;1.48;;
37805;SDS011;25082;50.870;0.022;2023-12-04T03:11:45;3.75;;;1.48;;
37805;SDS011;25082;50.870;0.022;2023-12-04T03:14:11;4.97;;;1.85;;
37805;SDS011;25082;50.870;0.022;2023-12-04T03:16:37;5.82;;;2.47;;
37805;SDS011;25082;50.870;0.022;2023-12-04T03:19:03;6.78;;;1.90;;
37805;SDS011;25082;50.870;0.022;2023-12-04T03:21:29;3.53;;;1.73;;
37805;SDS011;25082;50.870;0.022;2023-12-04T03:23:55;5.78;;;1.67;;
37805;SDS011;25082;50.870;0.022;2023-12-04T03:26:20;5.00;;;1.67;;
37805;SDS011;25082;50.870;0.022;2023-12-04T03:28:46;7.28;;;1.60;;
37805;SDS011;25082;50.870;0.022;2023-12-04T03:31:12;4.10;;;1.42;;
37805;SDS011;25082;50.870;0.022;2023-12-04T03:33:37;3.42;;;1.30;;
37805;SDS011;25082;50.870;0.022;2023-12-04T03:36:03;2.50;;;1.38;;
37805;SDS011;25082;50.870;0.022;2023-12-04T03:38:30;4.53;;;1.67;;
37805;SDS011;25082;50.870;0.022;2023-12-04T03:40:55;4.22;;;1.52;;
37805;SDS011;25082;50.870;0.022;2023-12-04T03:43:21;3.13;;;1.48;;
37805;SDS011;25082;50.870;0.022;2023-12-04T03:45:47;4.85;;;1.80;;
37805;SDS011;25082;50.870;0.022;2023-12-04T03:48:13;2.33;;;1.02;;
37805;SDS011;25082;50.870;0.022;2023-12-04T03:50:38;3.47;;;1.55;;
37805;SDS011;25082;50.870;0.022;2023-12-04T03:53:04;4.70;;;1.50;;
37805;SDS011;25082;50.870;0.022;2023-12-04T03:55:30;3.15;;;1.25;;
37805;SDS011;25082;50.870;0.022;2023-12-04T03:57:56;5.00;;;1.95;;
37805;SDS011;25082;50.870;0.022;2023-12-04T04:00:22;4.88;;;1.67;;
37805;SDS011;25082;50.870;0.022;2023-12-04T04:02:49;4.05;;;1.33;;
37805;SDS011;25082;50.870;0.022;2023-12-04T04:05:15;3.60;;;1.48;;
37805;SDS011;25082;50.870;0.022;2023-12-04T04:07:41;5.13;;;1.60;;
37805;SDS011;25082;50.870;0.022;2023-12-04T04:10:07;5.05;;;1.70;;
37805;SDS011;25082;50.870;0.022;2023-12-04T04:12:33;4.65;;;1.52;;
37805;SDS011;25082;50.870;0.022;2023-12-04T04:14:59;4.22;;;1.50;;
37805;SDS011;25082;50.870;0.022;2023-12-04T04:17:25;3.13;;;1.55;;
37805;SDS011;25082;50.870;0.022;2023-12-04T04:19:52;3.03;;;1.40;;
37805;SDS011;25082;50.870;0.022;2023-12-04T04:22:21;4.10;;;1.50;;
37805;SDS011;25082;50.870;0.022;2023-12-04T04:24:48;5.18;;;1.48;;
37805;SDS011;25082;50.870;0.022;2023-12-04T04:27:14;5.72;;;1.92;;
37805;SDS011;25082;50.870;0.022;2023-12-04T04:29:40;4.65;;;1.83;;
37805;SDS011;25082;50.870;0.022;2023-12-04T04:32:06;5.28;;;1.77;;
37805;SDS011;25082;50.870;0.022;2023-12-04T04:34:32;5.03;;;1.55;;
37805;SDS011;25082;50.870;0.022;2023-12-04T04:36:58;2.83;;;1.60;;
37805;SDS011;25082;50.870;0.022;2023-12-04T04:39:24;3.70;;;1.42;;
37805;SDS011;25082;50.870;0.022;2023-12-04T04:41:49;6.50;;;1.98;;
37805;SDS011;25082;50.870;0.022;2023-12-04T04:44:15;3.10;;;1.45;;
37805;SDS011;25082;50.870;0.022;2023-12-04T04:46:41;4.10;;;1.52;;
37805;SDS011;25082;50.870;0.022;2023-12-04T04:49:07;4.53;;;1.48;;
37805;SDS011;25082;50.870;0.022;2023-12-04T04:51:33;4.22;;;1.88;;
37805;SDS011;25082;50.870;0.022;2023-12-04T04:54:02;7.43;;;1.75;;
37805;SDS011;25082;50.870;0.022;2023-12-04T04:56:29;4.13;;;1.77;;
37805;SDS011;25082;50.870;0.022;2023-12-04T04:58:54;5.30;;;2.30;;
37805;SDS011;25082;50.870;0.022;2023-12-04T05:01:21;5.20;;;1.95;;
37805;SDS011;25082;50.870;0.022;2023-12-04T05:03:47;3.60;;;1.30;;
37805;SDS011;25082;50.870;0.022;2023-12-04T05:06:13;4.10;;;1.70;;
37805;SDS011;25082;50.870;0.022;2023-12-04T05:08:39;5.35;;;1.80;;
37805;SDS011;25082;50.870;0.022;2023-12-04T05:11:05;4.78;;;1.40;;
37805;SDS011;25082;50.870;0.022;2023-12-04T05:13:31;6.78;;;2.22;;
37805;SDS011;25082;50.870;0.022;2023-12-04T05:15:56;3.95;;;1.55;;
37805;SDS011;25082;50.870;0.022;2023-12-04T05:18:22;4.60;;;1.73;;
37805;SDS011;25082;50.870;0.022;2023-12-04T05:20:48;7.32;;;1.63;;
37805;SDS011;25082;50.870;0.022;2023-12-04T05:23:13;3.88;;;2.08;;
37805;SDS011;25082;50.870;0.022;2023-12-04T05:25:39;4.95;;;1.77;;
37805;SDS011;25082;50.870;0.022;2023-12-04T05:28:05;2.90;;;1.83;;
37805;SDS011;25082;50.870;0.022;2023-12-04T05:30:31;4.55;;;1.60;;
37805;SDS011;25082;50.870;0.022;2023-12-04T05:32:56;4.32;;;1.85;;
37805;SDS011;25082;50.870;0.022;2023-12-04T05:35:22;4.57;;;1.67;;
37805;SDS011;25082;50.870;0.022;2023-12-04T05:37:48;6.13;;;1.65;;
37805;SDS011;25082;50.870;0.022;2023-12-04T05:40:14;3.85;;;2.05;;
37805;SDS011;25082;50.870;0.022;2023-12-04T05:42:40;6.85;;;1.65;;
37805;SDS011;25082;50.870;0.022;2023-12-04T05:45:06;2.65;;;1.10;;
37805;SDS011;25082;50.870;0.022;2023-12-04T05:47:33;4.60;;;2.08;;
37805;SDS011;25082;50.870;0.022;2023-12-04T05:49:59;6.25;;;1.90;;
37805;SDS011;25082;50.870;0.022;2023-12-04T05:52:25;6.78;;;1.88;;
37805;SDS011;25082;50.870;0.022;2023-12-04T05:54:51;4.03;;;1.70;;
37805;SDS011;25082;50.870;0.022;2023-12-04T05:57:17;3.80;;;1.58;;
37805;SDS011;25082;50.870;0.022;2023-12-04T05:59:43;4.90;;;1.52;;
37805;SDS011;25082;50.870;0.022;2023-12-04T06:02:09;4.45;;;1.40;;
37805;SDS011;25082;50.870;0.022;2023-12-04T06:04:34;6.53;;;1.85;;
37805;SDS011;25082;50.870;0.022;2023-12-04T06:07:00;5.13;;;1.92;;
37805;SDS011;25082;50.870;0.022;2023-12-04T06:09:26;3.92;;;1.45;;
37805;SDS011;25082;50.870;0.022;2023-12-04T06:11:52;4.32;;;2.08;;
37805;SDS011;25082;50.870;0.022;2023-12-04T06:14:18;4.55;;;1.73;;
37805;SDS011;25082;50.870;0.022;2023-12-04T06:16:43;4.68;;;1.90;;
37805;SDS011;25082;50.870;0.022;2023-12-04T06:19:09;2.65;;;1.40;;
37805;SDS011;25082;50.870;0.022;2023-12-04T06:21:35;5.32;;;2.10;;
37805;SDS011;25082;50.870;0.022;2023-12-04T06:24:01;6.90;;;2.17;;
37805;SDS011;25082;50.870;0.022;2023-12-04T06:26:27;4.20;;;1.90;;
37805;SDS011;25082;50.870;0.022;2023-12-04T06:28:54;4.72;;;1.48;;
37805;SDS011;25082;50.870;0.022;2023-12-04T06:31:20;7.97;;;1.70;;
37805;SDS011;25082;50.870;0.022;2023-12-04T06:33:46;3.10;;;1.50;;
37805;SDS011;25082;50.870;0.022;2023-12-04T06:36:12;4.85;;;1.75;;
37805;SDS011;25082;50.870;0.022;2023-12-04T06:38:39;4.20;;;1.85;;
37805;SDS011;25082;50.870;0.022;2023-12-04T06:41:06;2.97;;;1.92;;
37805;SDS011;25082;50.870;0.022;2023-12-04T06:43:33;4.50;;;1.75;;
37805;SDS011;25082;50.870;0.022;2023-12-04T06:45:59;3.92;;;1.80;;
37805;SDS011;25082;50.870;0.022;2023-12-04T06:48:25;3.47;;;1.63;;
37805;SDS011;25082;50.870;0.022;2023-12-04T06:50:51;4.63;;;1.40;;
37805;SDS011;25082;50.870;0.022;2023-12-04T06:53:16;5.88;;;1.65;;
37805;SDS011;25082;50.870;0.022;2023-12-04T06:55:42;6.35;;;2.15;;
37805;SDS011;25082;50.870;0.022;2023-12-04T06:58:09;3.40;;;1.58;;
37805;SDS011;25082;50.870;0.022;2023-12-04T07:00:35;5.05;;;1.95;;
37805;SDS011;25082;50.870;0.022;2023-12-04T07:03:00;4.85;;;2.20;;
37805;SDS011;25082;50.870;0.022;2023-12-04T07:05:26;4.82;;;2.20;;
37805;SDS011;25082;50.870;0.022;2023-12-04T07:07:52;5.07;;;2.00;;
37805;SDS011;25082;50.870;0.022;2023-12-04T07:10:18;4.10;;;1.85;;
37805;SDS011;25082;50.870;0.022;2023-12-04T07:12:44;3.80;;;1.83;;
37805;SDS011;25082;50.870;0.022;2023-12-04T07:15:10;3.65;;;1.52;;
37805;SDS011;25082;50.870;0.022;2023-12-04T07:17:36;5.43;;;2.00;;
37805;SDS011;25082;50.870;0.022;2023-12-04T07:20:03;4.25;;;1.83;;
37805;SDS011;25082;50.870;0.022;2023-12-04T07:22:32;4.68;;;1.90;;
37805;SDS011;25082;50.870;0.022;2023-12-04T07:24:58;4.45;;;1.80;;
37805;SDS011;25082;50.870;0.022;2023-12-04T07:27:24;5.05;;;2.28;;
37805;SDS011;25082;50.870;0.022;2023-12-04T07:29:50;5.38;;;1.80;;
37805;SDS011;25082;50.870;0.022;2023-12-04T07:32:16;5.43;;;1.90;;
37805;SDS011;25082;50.870;0.022;2023-12-04T07:34:43;4.55;;;1.60;;
37805;SDS011;25082;50.870;0.022;2023-12-04T07:37:09;3.53;;;1.65;;
37805;SDS011;25082;50.870;0.022;2023-12-04T07:39:34;3.92;;;1.60;;
37805;SDS011;25082;50.870;0.022;2023-12-04T07:42:00;3.42;;;1.60;;
37805;SDS011;25082;50.870;0.022;2023-12-04T07:44:26;4.25;;;2.00;;
37805;SDS011;25082;50.870;0.022;2023-12-04T07:46:52;5.13;;;1.98;;
37805;SDS011;25082;50.870;0.022;2023-12-04T07:49:18;3.35;;;1.65;;
37805;SDS011;25082;50.870;0.022;2023-12-04T07:51:43;4.43;;;1.88;;
37805;SDS011;25082;50.870;0.022;2023-12-04T07:54:09;3.10;;;1.50;;
37805;SDS011;25082;50.870;0.022;2023-12-04T07:56:35;3.78;;;1.63;;
37805;SDS011;25082;50.870;0.022;2023-12-04T07:59:01;3.67;;;1.40;;
37805;SDS011;25082;50.870;0.022;2023-12-04T08:01:27;2.40;;;1.60;;
37805;SDS011;25082;50.870;0.022;2023-12-04T08:03:52;3.97;;;1.85;;
37805;SDS011;25082;50.870;0.022;2023-12-04T08:06:18;3.03;;;1.63;;
37805;SDS011;25082;50.870;0.022;2023-12-04T08:08:44;3.85;;;1.88;;
37805;SDS011;25082;50.870;0.022;2023-12-04T08:11:10;4.55;;;1.90;;
37805;SDS011;25082;50.870;0.022;2023-12-04T08:13:38;5.70;;;1.55;;
37805;SDS011;25082;50.870;0.022;2023-12-04T08:16:04;6.25;;;1.88;;
37805;SDS011;25082;50.870;0.022;2023-12-04T08:18:30;4.13;;;1.70;;
37805;SDS011;25082;50.870;0.022;2023-12-04T08:20:59;5.47;;;1.80;;
37805;SDS011;25082;50.870;0.022;2023-12-04T08:23:25;3.95;;;1.80;;
37805;SDS011;25082;50.870;0.022;2023-12-04T08:25:51;4.50;;;1.63;;
37805;SDS011;25082;50.870;0.022;2023-12-04T08:28:17;4.20;;;1.67;;
37805;SDS011;25082;50.870;0.022;2023-12-04T08:30:42;3.65;;;1.67;;
37805;SDS011;25082;50.870;0.022;2023-12-04T08:33:08;6.32;;;1.85;;
37805;SDS011;25082;50.870;0.022;2023-12-04T08:35:34;3.15;;;1.50;;
37805;SDS011;25082;50.870;0.022;2023-12-04T08:38:00;4.78;;;1.52;;
37805;SDS011;25082;50.870;0.022;2023-12-04T08:40:25;3.50;;;2.20;;
37805;SDS011;25082;50.870;0.022;2023-12-04T08:42:51;4.50;;;1.40;;
37805;SDS011;25082;50.870;0.022;2023-12-04T08:45:17;2.88;;;1.38;;
37805;SDS011;25082;50.870;0.022;2023-12-04T08:47:43;5.32;;;1.85;;
37805;SDS011;25082;50.870;0.022;2023-12-04T08:50:09;6.18;;;1.75;;
37805;SDS011;25082;50.870;0.022;2023-12-04T08:52:35;5.55;;;1.65;;
37805;SDS011;25082;50.870;0.022;2023-12-04T08:55:01;2.70;;;1.45;;
37805;SDS011;25082;50.870;0.022;2023-12-04T08:57:27;3.30;;;1.70;;
37805;SDS011;25082;50.870;0.022;2023-12-04T08:59:53;3.05;;;1.33;;
37805;SDS011;25082;50.870;0.022;2023-12-04T09:02:18;4.22;;;1.58;;
37805;SDS011;25082;50.870;0.022;2023-12-04T09:04:44;4.18;;;1.60;;
37805;SDS011;25082;50.870;0.022;2023-12-04T09:07:10;3.42;;;1.58;;
37805;SDS011;25082;50.870;0.022;2023-12-04T09:09:36;3.28;;;1.55;;
37805;SDS011;25082;50.870;0.022;2023-12-04T09:12:01;5.43;;;1.40;;
37805;SDS011;25082;50.870;0.022;2023-12-04T09:14:27;7.70;;;2.13;;
37805;SDS011;25082;50.870;0.022;2023-12-04T09:16:53;4.82;;;1.60;;
37805;SDS011;25082;50.870;0.022;2023-12-04T09:19:19;2.60;;;1.25;;
37805;SDS011;25082;50.870;0.022;2023-12-04T09:21:45;4.40;;;1.65;;
37805;SDS011;25082;50.870;0.022;2023-12-04T09:24:11;3.45;;;1.60;;
37805;SDS011;25082;50.870;0.022;2023-12-04T09:26:38;2.67;;;1.85;;
37805;SDS011;25082;50.870;0.022;2023-12-04T09:29:04;3.45;;;1.23;;
37805;SDS011;25082;50.870;0.022;2023-12-04T09:31:30;3.05;;;1.58;;
37805;SDS011;25082;50.870;0.022;2023-12-04T09:33:56;2.58;;;1.50;;
37805;SDS011;25082;50.870;0.022;2023-12-04T09:36:22;3.35;;;1.38;;
37805;SDS011;25082;50.870;0.022;2023-12-04T09:38:47;4.05;;;1.40;;
37805;SDS011;25082;50.870;0.022;2023-12-04T09:41:13;3.53;;;1.48;;
37805;SDS011;25082;50.870;0.022;2023-12-04T09:43:41;5.10;;;1.83;;
37805;SDS011;25082;50.870;0.022;2023-12-04T09:46:08;7.25;;;1.80;;
37805;SDS011;25082;50.870;0.022;2023-12-04T09:48:34;3.75;;;1.50;;
37805;SDS011;25082;50.870;0.022;2023-12-04T09:51:02;4.82;;;1.88;;
37805;SDS011;25082;50.870;0.022;2023-12-04T09:53:28;5.75;;;1.60;;
37805;SDS011;25082;50.870;0.022;2023-12-04T09:55:57;3.65;;;1.52;;
37805;SDS011;25082;50.870;0.022;2023-12-04T09:58:27;6.00;;;1.65;;
37805;SDS011;25082;50.870;0.022;2023-12-04T10:00:54;2.72;;;1.15;;
37805;SDS011;25082;50.870;0.022;2023-12-04T10:03:20;3.90;;;1.60;;
37805;SDS011;25082;50.870;0.022;2023-12-04T10:05:46;4.40;;;1.42;;
37805;SDS011;25082;50.870;0.022;2023-12-04T10:08:13;3.55;;;1.45;;
37805;SDS011;25082;50.870;0.022;2023-12-04T10:10:39;3.10;;;1.48;;
37805;SDS011;25082;50.870;0.022;2023-12-04T10:13:05;2.92;;;1.35;;
37805;SDS011;25082;50.870;0.022;2023-12-04T10:15:31;2.60;;;1.38;;
37805;SDS011;25082;50.870;0.022;2023-12-04T10:17:57;5.95;;;1.73;;
37805;SDS011;25082;50.870;0.022;2023-12-04T10:20:23;6.35;;;1.58;;
37805;SDS011;25082;50.870;0.022;2023-12-04T10:25:19;4.15;;;1.80;;
37805;SDS011;25082;50.870;0.022;2023-12-04T10:27:46;2.67;;;1.27;;
37805;SDS011;25082;50.870;0.022;2023-12-04T10:30:25;4.57;;;1.80;;
37805;SDS011;25082;50.870;0.022;2023-12-04T10:32:56;4.53;;;1.70;;
37805;SDS011;25082;50.870;0.022;2023-12-04T10:35:26;3.70;;;1.52;;
37805;SDS011;25082;50.870;0.022;2023-12-04T10:37:55;4.93;;;1.77;;
37805;SDS011;25082;50.870;0.022;2023-12-04T10:40:29;5.00;;;1.65;;
37805;SDS011;25082;50.870;0.022;2023-12-04T10:43:17;4.63;;;1.80;;
37805;SDS011;25082;50.870;0.022;2023-12-04T10:45:46;2.95;;;1.48;;
37805;SDS011;25082;50.870;0.022;2023-12-04T10:48:13;4.03;;;1.67;;
37805;SDS011;25082;50.870;0.022;2023-12-04T10:50:41;3.72;;;1.35;;
37805;SDS011;25082;50.870;0.022;2023-12-04T10:53:10;4.65;;;2.28;;
37805;SDS011;25082;50.870;0.022;2023-12-04T10:55:37;3.22;;;1.70;;
37805;SDS011;25082;50.870;0.022;2023-12-04T10:58:05;5.72;;;2.15;;
37805;SDS011;25082;50.870;0.022;2023-12-04T11:00:38;5.13;;;1.35;;
37805;SDS011;25082;50.870;0.022;2023-12-04T11:03:08;2.67;;;1.20;;
37805;SDS011;25082;50.870;0.022;2023-12-04T11:05:37;5.28;;;1.85;;
37805;SDS011;25082;50.870;0.022;2023-12-04T11:08:07;5.28;;;1.55;;
37805;SDS011;25082;50.870;0.022;2023-12-04T11:10:44;4.22;;;1.80;;
37805;SDS011;25082;50.870;0.022;2023-12-04T11:13:17;5.18;;;1.70;;
37805;SDS011;25082;50.870;0.022;2023-12-04T11:15:49;3.38;;;2.10;;
37805;SDS011;25082;50.870;0.022;2023-12-04T11:18:18;4.40;;;2.17;;
37805;SDS011;25082;50.870;0.022;2023-12-04T11:20:51;4.30;;;1.58;;
37805;SDS011;25082;50.870;0.022;2023-12-04T11:23:22;3.08;;;1.48;;
37805;SDS011;25082;50.870;0.022;2023-12-04T11:25:48;3.88;;;1.27;;
37805;SDS011;25082;50.870;0.022;2023-12-04T11:28:15;4.47;;;1.83;;
37805;SDS011;25082;50.870;0.022;2023-12-04T11:30:41;1.80;;;1.17;;
37805;SDS011;25082;50.870;0.022;2023-12-04T11:33:08;4.95;;;1.50;;
37805;SDS011;25082;50.870;0.022;2023-12-04T11:35:36;4.50;;;1.42;;
37805;SDS011;25082;50.870;0.022;2023-12-04T11:38:06;2.40;;;1.38;;
37805;SDS011;25082;50.870;0.022;2023-12-04T11:40:34;7.00;;;1.45;;
37805;SDS011;25082;50.870;0.022;2023-12-04T11:43:05;2.90;;;1.10;;
37805;SDS011;25082;50.870;0.022;2023-12-04T11:45:50;5.55;;;1.35;;
37805;SDS011;25082;50.870;0.022;2023-12-04T11:48:15;4.07;;;1.45;;
37805;SDS011;25082;50.870;0.022;2023-12-04T11:50:44;4.35;;;1.35;;
37805;SDS011;25082;50.870;0.022;2023-12-04T11:53:10;4.70;;;1.40;;
37805;SDS011;25082;50.870;0.022;2023-12-04T11:55:40;4.80;;;1.70;;
37805;SDS011;25082;50.870;0.022;2023-12-04T11:58:10;5.88;;;1.80;;
37805;SDS011;25082;50.870;0.022;2023-12-04T12:00:36;7.47;;;1.83;;
37805;SDS011;25082;50.870;0.022;2023-12-04T12:03:06;24.77;;;2.20;;
37805;SDS011;25082;50.870;0.022;2023-12-04T12:05:34;12.20;;;2.78;;
37805;SDS011;25082;50.870;0.022;2023-12-04T12:08:03;8.70;;;2.53;;
37805;SDS011;25082;50.870;0.022;2023-12-04T12:10:30;9.80;;;2.38;;
37805;SDS011;25082;50.870;0.022;2023-12-04T12:12:57;14.98;;;3.30;;
37805;SDS011;25082;50.870;0.022;2023-12-04T12:15:23;8.32;;;2.25;;
37805;SDS011;25082;50.870;0.022;2023-12-04T12:17:49;10.15;;;2.47;;
37805;SDS011;25082;50.870;0.022;2023-12-04T12:20:16;12.80;;;3.60;;
37805;SDS011;25082;50.870;0.022;2023-12-04T12:22:43;11.57;;;2.83;;
37805;SDS011;25082;50.870;0.022;2023-12-04T12:25:09;17.50;;;3.00;;
37805;SDS011;25082;50.870;0.022;2023-12-04T12:27:39;13.40;;;3.17;;
37805;SDS011;25082;50.870;0.022;2023-12-04T12:30:05;11.95;;;2.33;;
37805;SDS011;25082;50.870;0.022;2023-12-04T12:32:35;8.48;;;3.03;;
37805;SDS011;25082;50.870;0.022;2023-12-04T12:35:01;13.95;;;3.55;;
37805;SDS011;25082;50.870;0.022;2023-12-04T12:37:28;16.42;;;3.28;;
37805;SDS011;25082;50.870;0.022;2023-12-04T12:39:54;12.10;;;2.83;;
37805;SDS011;25082;50.870;0.022;2023-12-04T12:42:29;14.63;;;2.92;;
37805;SDS011;25082;50.870;0.022;2023-12-04T12:44:55;15.68;;;3.10;;
37805;SDS011;25082;50.870;0.022;2023-12-04T12:47:24;14.32;;;2.75;;
37805;SDS011;25082;50.870;0.022;2023-12-04T12:49:50;14.80;;;3.05;;
37805;SDS011;25082;50.870;0.022;2023-12-04T12:52:17;13.77;;;2.80;;
37805;SDS011;25082;50.870;0.022;2023-12-04T12:54:52;9.48;;;2.80;;
37805;SDS011;25082;50.870;0.022;2023-12-04T12:57:17;12.82;;;2.83;;
37805;SDS011;25082;50.870;0.022;2023-12-04T12:59:43;14.98;;;2.55;;
37805;SDS011;25082;50.870;0.022;2023-12-04T13:02:09;16.67;;;2.47;;
37805;SDS011;25082;50.870;0.022;2023-12-04T13:04:40;15.48;;;2.90;;
37805;SDS011;25082;50.870;0.022;2023-12-04T13:07:07;11.48;;;2.92;;
37805;SDS011;25082;50.870;0.022;2023-12-04T13:09:34;10.20;;;2.25;;
37805;SDS011;25082;50.870;0.022;2023-12-04T13:12:03;10.48;;;2.30;;
37805;SDS011;25082;50.870;0.022;2023-12-04T13:14:29;9.73;;;2.20;;
37805;SDS011;25082;50.870;0.022;2023-12-04T13:16:55;16.42;;;3.05;;
37805;SDS011;25082;50.870;0.022;2023-12-04T13:19:24;12.45;;;2.33;;
37805;SDS011;25082;50.870;0.022;2023-12-04T13:21:50;21.92;;;2.58;;
37805;SDS011;25082;50.870;0.022;2023-12-04T13:24:16;17.15;;;1.85;;
37805;SDS011;25082;50.870;0.022;2023-12-04T13:26:43;13.98;;;2.25;;
37805;SDS011;25082;50.870;0.022;2023-12-04T13:29:09;11.30;;;2.55;;
37805;SDS011;25082;50.870;0.022;2023-12-04T13:31:35;7.45;;;2.28;;
37805;SDS011;25082;50.870;0.022;2023-12-04T13:34:02;19.50;;;3.05;;
37805;SDS011;25082;50.870;0.022;2023-12-04T13:36:31;8.55;;;2.20;;
37805;SDS011;25082;50.870;0.022;2023-12-04T13:38:59;14.38;;;2.92;;
37805;SDS011;25082;50.870;0.022;2023-12-04T13:41:25;8.63;;;2.15;;
37805;SDS011;25082;50.870;0.022;2023-12-04T13:44:09;8.18;;;2.10;;
37805;SDS011;25082;50.870;0.022;2023-12-04T13:46:39;11.32;;;2.30;;
37805;SDS011;25082;50.870;0.022;2023-12-04T13:49:05;12.73;;;1.83;;
37805;SDS011;25082;50.870;0.022;2023-12-04T13:51:30;9.20;;;2.03;;
37805;SDS011;25082;50.870;0.022;2023-12-04T13:53:56;16.58;;;2.40;;
37805;SDS011;25082;50.870;0.022;2023-12-04T13:56:33;7.95;;;2.42;;
37805;SDS011;25082;50.870;0.022;2023-12-04T13:59:17;10.55;;;1.95;;
37805;SDS011;25082;50.870;0.022;2023-12-04T14:01:45;10.88;;;1.77;;
37805;SDS011;25082;50.870;0.022;2023-12-04T14:04:12;9.18;;;2.10;;
37805;SDS011;25082;50.870;0.022;2023-12-04T14:06:38;10.48;;;1.42;;
37805;SDS011;25082;50.870;0.022;2023-12-04T14:09:04;6.95;;;1.67;;
37805;SDS011;25082;50.870;0.022;2023-12-04T14:11:35;13.05;;;1.80;;
37805;SDS011;25082;50.870;0.022;2023-12-04T14:14:03;9.20;;;1.92;;
37805;SDS011;25082;50.870;0.022;2023-12-04T14:16:30;4.30;;;1.48;;
37805;SDS011;25082;50.870;0.022;2023-12-04T14:18:56;7.47;;;2.00;;
37805;SDS011;25082;50.870;0.022;2023-12-04T14:21:22;4.03;;;1.45;;
37805;SDS011;25082;50.870;0.022;2023-12-04T14:23:48;4.68;;;1.33;;
37805;SDS011;25082;50.870;0.022;2023-12-04T14:26:14;5.13;;;2.03;;
37805;SDS011;25082;50.870;0.022;2023-12-04T14:28:40;7.75;;;2.20;;
37805;SDS011;25082;50.870;0.022;2023-12-04T14:31:06;6.90;;;1.25;;
37805;SDS011;25082;50.870;0.022;2023-12-04T14:33:32;6.82;;;1.73;;
37805;SDS011;25082;50.870;0.022;2023-12-04T14:35:58;6.40;;;1.90;;
37805;SDS011;25082;50.870;0.022;2023-12-04T14:38:24;4.75;;;1.83;;
37805;SDS011;25082;50.870;0.022;2023-12-04T14:40:50;4.03;;;1.00;;
37805;SDS011;25082;50.870;0.022;2023-12-04T14:43:16;6.88;;;1.55;;
37805;SDS011;25082;50.870;0.022;2023-12-04T14:45:41;3.45;;;1.45;;